aviador You're here:

CYEK Decoded Metar

ESKIMO POINT in NU, CANADA
Report Time2017-12-15 19:11:00
UTC Time2017-12-15 19:45:07
Flight Rules lifr LIFR
Wind320° at 09 kt
W.Decomp.*RWY 33: 9.0 kt HW 0.9 kt LCW
W.Rank320° ranks 2
Current wind is below 320° avg. (14.5)
Visibility9999 m
Phenomena:Ice Crystals
Clouds:Broken 003 Hf
Expected CloudBase > 1,200 ft AGL from Temp-Dew spread
Ceiling300 ft
Temp-25°C (ISA -40)
Dew Point-28°C (76% RH)
AAT-32.0°C
QNH1014 hPa
Density Alt-5,174 ft
Elevation33 ft
Report Wrong Elevation
Raw Report
SPECI CYEK 151911Z 32009KT 7SM IC BKN003 M25/M28 A2995 RMK ST7 SLP146=

Extra information for CYEK:More info

Metar Taf Metar & Taf Last 4 Metars F.Rules Stats Wind Profile Meteogram Temp Stats Airport Information Weather charts Add Link Nearby VenuesMetar ALERT Operation Metar Decoded Social comments